createdAt,value
2018-08-23T00:01:10.319Z,100369.75
2018-08-23T00:03:38.482Z,100368.79
2018-08-23T00:06:06.630Z,100367.20
2018-08-23T00:08:34.756Z,100367.45
2018-08-23T00:11:02.807Z,100360.38
2018-08-23T00:13:35.065Z,100368.45
2018-08-23T00:16:03.125Z,100366.96
2018-08-23T00:18:31.190Z,100365.97
2018-08-23T00:20:59.268Z,100363.42
2018-08-23T00:23:27.398Z,100360.42
2018-08-23T00:25:55.463Z,100354.27
2018-08-23T00:28:23.506Z,100349.77
2018-08-23T00:30:51.567Z,100353.44
2018-08-23T00:33:19.660Z,100345.23
2018-08-23T00:35:47.724Z,100339.53
2018-08-23T00:38:15.965Z,100348.20
2018-08-23T00:40:45.082Z,100343.45
2018-08-23T00:43:14.010Z,100340.80
2018-08-23T00:45:42.075Z,100343.27
2018-08-23T00:48:10.155Z,100339.66
2018-08-23T00:50:57.096Z,100340.45
2018-08-23T00:53:25.423Z,100339.05
2018-08-23T00:56:08.927Z,100335.25
2018-08-23T00:58:36.999Z,100335.89
2018-08-23T01:01:05.484Z,100331.14
2018-08-23T01:03:35.375Z,100329.35
2018-08-23T01:06:03.817Z,100326.64
2018-08-23T01:08:34.780Z,100329.86
2018-08-23T01:11:04.092Z,100326.70
2018-08-23T01:13:32.184Z,100334.93
2018-08-23T01:16:00.238Z,100315.53
2018-08-23T01:18:28.319Z,100321.56
2018-08-23T01:20:56.393Z,100314.39
2018-08-23T01:23:24.479Z,100311.39
2018-08-23T01:25:52.786Z,100307.43
2018-08-23T01:28:20.878Z,100311.89
2018-08-23T01:30:49.585Z,100309.95
2018-08-23T01:33:18.805Z,100315.02
2018-08-23T01:35:48.007Z,100302.09
2018-08-23T01:38:16.606Z,100305.63
2018-08-23T01:40:44.883Z,100302.72
2018-08-23T01:43:12.992Z,100297.52
2018-08-23T01:45:41.072Z,100295.16
2018-08-23T01:48:09.967Z,100300.16
2018-08-23T01:50:38.028Z,100292.55
2018-08-23T01:53:06.139Z,100293.95
2018-08-23T01:55:34.223Z,100296.97
2018-08-23T01:58:02.359Z,100294.86
2018-08-23T02:00:41.252Z,100287.47
2018-08-23T02:03:09.327Z,100289.50
2018-08-23T02:05:38.743Z,100281.11
2018-08-23T02:08:07.467Z,100283.56
2018-08-23T02:10:35.542Z,100277.82
2018-08-23T02:13:03.632Z,100279.12
2018-08-23T02:15:36.019Z,100273.42
2018-08-23T02:18:04.948Z,100269.52
2018-08-23T02:20:33.027Z,100265.81
2018-08-23T02:23:04.483Z,100261.50
2018-08-23T02:25:32.623Z,100257.95
2018-08-23T02:28:01.971Z,100265.86
2018-08-23T02:30:44.083Z,100271.22
2018-08-23T02:33:12.974Z,100271.80
2018-08-23T02:35:45.486Z,100269.12
2018-08-23T02:38:13.545Z,100263.38
2018-08-23T02:40:41.603Z,100265.59
2018-08-23T02:43:09.712Z,100265.27
2018-08-23T02:45:43.100Z,100263.16
2018-08-23T02:48:11.145Z,100258.56
2018-08-23T02:50:39.217Z,100262.80
2018-08-23T02:53:24.067Z,100262.33
2018-08-23T02:55:53.385Z,100266.84
2018-08-23T02:58:22.703Z,100260.69
2018-08-23T03:00:50.760Z,100262.12
2018-08-23T03:03:18.835Z,100255.38
2018-08-23T03:05:46.896Z,100260.21
2018-08-23T03:08:15.024Z,100261.29
2018-08-23T03:10:43.176Z,100257.69
2018-08-23T03:13:11.385Z,100257.09
2018-08-23T03:15:39.441Z,100257.28
2018-08-23T03:18:07.501Z,100249.45
2018-08-23T03:20:35.611Z,100247.41
2018-08-23T03:23:03.696Z,100246.01
2018-08-23T03:25:31.766Z,100245.58
2018-08-23T03:27:59.816Z,100243.77
2018-08-23T03:30:27.894Z,100239.38
2018-08-23T03:32:55.984Z,100239.17
2018-08-23T03:35:24.067Z,100236.38
2018-08-23T03:37:52.140Z,100236.21
2018-08-23T03:40:20.213Z,100238.45
2018-08-23T03:42:48.276Z,100236.89
2018-08-23T03:45:21.692Z,100241.53
2018-08-23T03:47:51.255Z,100238.81
2018-08-23T03:50:19.314Z,100237.69
2018-08-23T03:52:49.593Z,100242.52
2018-08-23T03:55:18.085Z,100239.96
2018-08-23T03:57:52.398Z,100238.80
2018-08-23T04:01:27.102Z,100239.27
2018-08-23T04:03:55.229Z,100239.47
2018-08-23T04:06:30.835Z,100239.27
2018-08-23T04:08:58.931Z,100233.67
2018-08-23T04:11:27.032Z,100232.88
2018-08-23T04:13:55.203Z,100234.84
2018-08-23T04:16:28.140Z,100232.60
2018-08-23T04:18:56.767Z,100226.41
2018-08-23T04:21:25.043Z,100227.97
2018-08-23T04:23:53.167Z,100221.77
2018-08-23T04:26:21.527Z,100223.77
2018-08-23T04:28:49.607Z,100222.05
2018-08-23T04:31:17.702Z,100231.12
2018-08-23T04:33:45.746Z,100233.71
2018-08-23T04:36:32.907Z,100236.70
2018-08-23T04:39:05.021Z,100238.52
2018-08-23T04:41:33.661Z,100231.35
2018-08-23T04:44:11.195Z,100234.71
2018-08-23T04:46:39.260Z,100234.47
2018-08-23T04:49:07.872Z,100233.30
2018-08-23T04:51:37.104Z,100222.45
2018-08-23T04:54:05.299Z,100221.54
2018-08-23T04:56:33.420Z,100219.22
2018-08-23T04:59:01.616Z,100229.49
2018-08-23T05:01:29.722Z,100224.34
2018-08-23T05:03:57.824Z,100224.97
2018-08-23T05:06:25.858Z,100224.59
2018-08-23T05:08:53.926Z,100220.00
2018-08-23T05:11:22.058Z,100219.25
2018-08-23T05:13:50.108Z,100218.02
2018-08-23T05:16:18.538Z,100215.80
2018-08-23T05:18:46.607Z,100215.71
2018-08-23T05:21:14.690Z,100213.69
2018-08-23T05:23:42.783Z,100215.83
2018-08-23T05:26:14.981Z,100215.02
2018-08-23T05:28:56.926Z,100216.55
2018-08-23T05:31:25.877Z,100213.74
2018-08-23T05:33:53.912Z,100204.39
2018-08-23T05:36:21.967Z,100203.36
2018-08-23T05:38:50.011Z,100202.74
2018-08-23T05:41:19.067Z,100201.84
2018-08-23T05:43:52.623Z,100203.02
2018-08-23T05:46:20.700Z,100199.85
2018-08-23T05:48:48.799Z,100189.41
2018-08-23T05:51:16.884Z,100198.09
2018-08-23T05:53:46.777Z,100201.20
2018-08-23T05:56:14.807Z,100202.63
2018-08-23T05:58:42.871Z,100197.11
2018-08-23T06:01:10.975Z,100201.66
2018-08-23T06:03:39.203Z,100200.28
2018-08-23T06:06:07.503Z,100205.25
2018-08-23T06:08:35.555Z,100201.31
2018-08-23T06:11:07.839Z,100195.73
2018-08-23T06:13:35.943Z,100201.69
2018-08-23T06:16:04.055Z,100200.00
2018-08-23T06:18:32.171Z,100198.91
2018-08-23T06:21:00.378Z,100195.19
2018-08-23T06:23:43.114Z,100195.94
2018-08-23T06:26:11.255Z,100168.75
2018-08-23T06:28:39.300Z,100194.38
2018-08-23T06:31:07.393Z,100199.34
2018-08-23T06:33:40.897Z,100196.39
2018-08-23T06:36:10.091Z,100197.97
2018-08-23T06:38:39.071Z,100202.22
2018-08-23T06:41:08.283Z,100200.83
2018-08-23T06:43:36.332Z,100197.97
2018-08-23T06:46:04.894Z,100196.53
2018-08-23T06:48:33.137Z,100195.63
2018-08-23T06:51:02.058Z,100195.58
2018-08-23T06:53:39.217Z,100198.70
2018-08-23T06:56:07.284Z,100190.09
2018-08-23T06:58:35.691Z,100199.98
2018-08-23T07:01:04.695Z,100200.30
2018-08-23T07:03:33.801Z,100199.69
2018-08-23T07:06:02.558Z,100196.70
2018-08-23T07:08:30.596Z,100194.00
2018-08-23T07:11:08.405Z,100187.88
2018-08-23T07:13:36.623Z,100191.83
2018-08-23T07:16:04.715Z,100185.97
2018-08-23T07:18:33.066Z,100195.45
2018-08-23T07:21:01.164Z,100195.48
2018-08-23T07:23:30.731Z,100196.77
2018-08-23T07:25:58.811Z,100194.83
2018-08-23T07:28:26.881Z,100195.69
2018-08-23T07:30:54.905Z,100198.40
2018-08-23T07:33:22.988Z,100199.44
2018-08-23T07:36:02.431Z,100200.25
2018-08-23T07:38:30.481Z,100199.73
2018-08-23T07:40:58.568Z,100205.01
2018-08-23T07:43:26.653Z,100199.91
2018-08-23T07:45:54.689Z,100198.89
2018-08-23T07:48:22.970Z,100199.93
2018-08-23T07:50:51.018Z,100199.91
2018-08-23T07:53:19.748Z,100197.23
2018-08-23T07:55:47.800Z,100200.30
2018-08-23T07:58:15.888Z,100202.09
2018-08-23T08:00:44.395Z,100199.23
2018-08-23T08:03:13.658Z,100204.00
2018-08-23T08:05:42.995Z,100200.72
2018-08-23T08:08:11.982Z,100204.03
2018-08-23T08:10:41.538Z,100202.59
2018-08-23T08:13:09.581Z,100192.28
2018-08-23T08:15:37.656Z,100191.08
2018-08-23T08:18:07.118Z,100195.94
2018-08-23T08:20:35.216Z,100199.09
2018-08-23T08:23:03.295Z,100198.94
2018-08-23T08:25:32.748Z,100190.64
2018-08-23T08:28:00.834Z,100196.30
2018-08-23T08:30:40.524Z,100195.03
2018-08-23T08:33:10.213Z,100192.52
2018-08-23T08:35:42.011Z,100194.84
2018-08-23T08:38:10.521Z,100192.33
2018-08-23T08:40:38.576Z,100187.78
2018-08-23T08:43:06.647Z,100188.55
2018-08-23T08:45:34.706Z,100187.60
2018-08-23T08:48:13.430Z,100187.76
2018-08-23T08:51:44.014Z,100194.41
2018-08-23T08:54:12.093Z,100190.23
2018-08-23T08:56:41.704Z,100178.55
2018-08-23T08:59:09.796Z,100178.53
2018-08-23T09:01:37.903Z,100176.86
2018-08-23T09:04:09.036Z,100169.98
2018-08-23T09:06:45.673Z,100172.01
2018-08-23T09:09:23.668Z,100154.33
2018-08-23T09:11:51.741Z,100154.38
2018-08-23T09:14:20.794Z,100153.25
2018-08-23T09:16:48.935Z,100159.00
2018-08-23T09:19:17.124Z,100147.34
2018-08-23T09:21:50.539Z,100142.19
2018-08-23T09:24:26.641Z,100146.69
2018-08-23T09:26:58.656Z,100148.66
2018-08-23T09:29:34.931Z,100141.73
2018-08-23T09:32:28.667Z,100143.21
2018-08-23T09:34:58.059Z,100139.86
2018-08-23T09:37:26.735Z,100141.19
2018-08-23T09:39:54.851Z,100142.77
2018-08-23T09:42:22.940Z,100143.75
2018-08-23T09:45:23.796Z,100143.45
2018-08-23T09:47:51.888Z,100137.34
2018-08-23T09:50:19.964Z,100139.16
2018-08-23T09:52:49.439Z,100132.47
2018-08-23T09:55:18.667Z,100126.70
2018-08-23T09:57:47.363Z,100127.50
2018-08-23T10:01:18.158Z,100123.22
2018-08-23T10:03:51.739Z,100112.23
2018-08-23T10:06:21.751Z,100105.39
2018-08-23T10:08:56.111Z,100107.05
2018-08-23T10:11:29.575Z,100104.52
2018-08-23T10:14:02.948Z,100101.69
2018-08-23T10:16:36.343Z,100093.94
2018-08-23T10:19:09.475Z,100097.11
2018-08-23T10:21:42.991Z,100096.25
2018-08-23T10:24:16.978Z,100089.07
2018-08-23T10:26:45.661Z,100088.46
2018-08-23T10:29:13.827Z,100085.41
2018-08-23T10:31:41.905Z,100086.09
2018-08-23T10:34:10.006Z,100088.38
2018-08-23T10:36:38.217Z,100090.03
2018-08-23T10:39:09.052Z,100088.53
2018-08-23T10:41:37.182Z,100080.87
2018-08-23T10:44:05.315Z,100084.38
2018-08-23T10:47:07.109Z,100083.09
2018-08-23T10:49:35.339Z,100072.32
2018-08-23T10:52:03.415Z,100074.66
2018-08-23T10:54:31.523Z,100075.00
2018-08-23T10:56:59.700Z,100071.91
2018-08-23T10:59:27.840Z,100073.67
2018-08-23T11:01:55.927Z,100077.08
2018-08-23T11:04:24.004Z,100072.36
2018-08-23T11:06:58.139Z,100071.03
2018-08-23T11:09:31.577Z,100069.65
2018-08-23T11:11:59.961Z,100071.87
2018-08-23T11:14:33.399Z,100065.41
2018-08-23T11:17:06.930Z,100069.42
2018-08-23T11:19:40.308Z,100060.64
2018-08-23T11:22:08.430Z,100064.30
2018-08-23T11:24:36.561Z,100057.17
2018-08-23T11:27:04.668Z,100064.42
2018-08-23T11:29:32.818Z,100058.13
2018-08-23T11:32:00.992Z,100060.00
2018-08-23T11:34:29.110Z,100053.09
2018-08-23T11:36:57.237Z,100058.59
2018-08-23T11:39:25.312Z,100062.50
2018-08-23T11:41:53.440Z,100053.20
2018-08-23T11:44:21.528Z,100058.70
2018-08-23T11:46:49.616Z,100045.66
2018-08-23T11:49:17.765Z,100058.41
2018-08-23T11:51:45.960Z,100046.70
2018-08-23T11:54:14.039Z,100045.60
2018-08-23T11:56:42.204Z,100045.55
2018-08-23T11:59:10.343Z,100043.87
2018-08-23T12:01:38.403Z,100041.53
2018-08-23T12:04:06.510Z,100033.14
2018-08-23T12:06:34.704Z,100025.57
2018-08-23T12:09:02.753Z,100028.08
2018-08-23T12:11:30.895Z,100027.84
2018-08-23T12:14:00.608Z,100024.13
2018-08-23T12:16:28.745Z,100026.34
2018-08-23T12:18:56.865Z,100024.73
2018-08-23T12:21:24.932Z,100029.53
2018-08-23T12:23:53.064Z,100025.92
2018-08-23T12:26:21.185Z,100021.02
2018-08-23T12:28:56.013Z,100022.69
2018-08-23T12:31:24.273Z,100014.63
2018-08-23T12:33:52.351Z,100014.63
2018-08-23T12:36:25.681Z,100007.89
2018-08-23T12:38:59.121Z,100008.78
2018-08-23T12:41:32.621Z,100011.81
2018-08-23T12:44:00.776Z,100001.88
2018-08-23T12:46:29.001Z,99990.43
2018-08-23T12:48:57.094Z,99992.98
2018-08-23T12:51:25.180Z,99993.30
2018-08-23T12:53:53.573Z,99983.27
2018-08-23T12:56:21.816Z,99984.59
2018-08-23T12:58:49.887Z,99983.85
2018-08-23T13:01:18.005Z,99975.16
2018-08-23T13:03:46.127Z,99969.51
2018-08-23T13:06:14.128Z,99972.86
2018-08-23T13:08:42.251Z,99960.56
2018-08-23T13:11:10.359Z,99975.06
2018-08-23T13:13:38.420Z,99965.58
2018-08-23T13:16:06.498Z,99966.58
2018-08-23T13:18:34.637Z,99971.78
2018-08-23T13:21:02.745Z,99952.94
2018-08-23T13:23:30.991Z,99948.92
2018-08-23T13:25:59.512Z,99951.77
2018-08-23T13:28:28.356Z,99948.57
2018-08-23T13:30:56.554Z,99943.28
2018-08-23T13:33:25.660Z,99939.22
2018-08-23T13:35:53.760Z,99932.75
2018-08-23T13:38:22.016Z,99934.17
2018-08-23T13:40:54.018Z,99940.75
2018-08-23T13:43:22.589Z,99935.70
2018-08-23T13:45:50.636Z,99939.43
2018-08-23T13:48:18.771Z,99925.83
2018-08-23T13:50:46.808Z,99923.70
2018-08-23T13:53:14.921Z,99921.70
2018-08-23T13:55:43.023Z,99914.05
2018-08-23T13:58:11.344Z,99910.54
2018-08-23T14:00:40.072Z,99925.91
2018-08-23T14:03:10.119Z,99922.88
2018-08-23T14:05:39.409Z,99924.14
2018-08-23T14:08:07.800Z,99929.91
2018-08-23T14:10:36.007Z,99914.92
2018-08-23T14:13:04.803Z,99907.16
2018-08-23T14:15:38.418Z,99898.50
2018-08-23T14:18:06.623Z,99907.16
2018-08-23T14:20:34.916Z,99905.41
2018-08-23T14:23:03.109Z,99890.62
2018-08-23T14:25:31.576Z,99904.22
2018-08-23T14:27:59.851Z,99901.63
2018-08-23T14:30:28.150Z,99902.02
2018-08-23T14:32:56.587Z,99899.06
2018-08-23T14:35:24.667Z,99905.49
2018-08-23T14:37:52.760Z,99893.06
2018-08-23T14:40:20.963Z,99898.55
2018-08-23T14:42:49.039Z,99883.36
2018-08-23T14:45:22.598Z,99886.42
2018-08-23T14:47:56.178Z,99883.23
2018-08-23T14:50:24.337Z,99885.77
2018-08-23T14:52:53.427Z,99891.29
2018-08-23T14:55:26.959Z,99884.63
2018-08-23T14:57:55.431Z,99882.89
2018-08-23T15:00:23.482Z,99887.38
2018-08-23T15:02:51.564Z,99879.34
2018-08-23T15:05:19.646Z,99883.25
2018-08-23T15:07:47.835Z,99872.09
2018-08-23T15:10:15.895Z,99873.95
2018-08-23T15:12:44.000Z,99872.01
2018-08-23T15:15:12.107Z,99865.89
2018-08-23T15:17:40.209Z,99863.37
2018-08-23T15:20:08.384Z,99866.73
2018-08-23T15:22:36.600Z,99859.73
2018-08-23T15:25:04.947Z,99859.86
2018-08-23T15:27:33.446Z,99859.27
2018-08-23T15:30:02.653Z,99864.44
2018-08-23T15:32:30.789Z,99857.19
2018-08-23T15:34:58.924Z,99852.67
2018-08-23T15:37:27.683Z,99855.27
2018-08-23T15:39:55.764Z,99852.78
2018-08-23T15:42:23.964Z,99848.89
2018-08-23T15:44:52.072Z,99852.84
2018-08-23T15:47:20.169Z,99850.88
2018-08-23T15:49:48.252Z,99845.27
2018-08-23T15:52:16.361Z,99846.22
2018-08-23T15:54:44.468Z,99843.22
2018-08-23T15:57:12.664Z,99833.48
2018-08-23T15:59:40.778Z,99838.92
2018-08-23T16:02:08.872Z,99842.91
2018-08-23T16:04:36.938Z,99834.82
2018-08-23T16:07:05.101Z,99839.00
2018-08-23T16:09:33.212Z,99833.80
2018-08-23T16:12:01.326Z,99842.19
2018-08-23T16:14:29.537Z,99830.95
2018-08-23T16:17:03.110Z,99821.58
2018-08-23T16:19:36.475Z,99829.89
2018-08-23T16:22:04.604Z,99816.05
2018-08-23T16:24:32.682Z,99817.86
2018-08-23T16:27:03.712Z,99821.83
2018-08-23T16:29:31.946Z,99822.88
2018-08-23T16:32:01.068Z,99822.00
2018-08-23T16:34:29.418Z,99820.77
2018-08-23T16:36:57.765Z,99817.15
2018-08-23T16:39:25.888Z,99807.38
2018-08-23T16:41:54.001Z,99810.59
2018-08-23T16:44:22.093Z,99796.26
2018-08-23T16:46:50.211Z,99810.16
2018-08-23T16:49:18.283Z,99807.03
2018-08-23T16:51:46.399Z,99808.48
2018-08-23T16:54:14.507Z,99801.30
2018-08-23T16:56:42.665Z,99796.95
2018-08-23T16:59:10.781Z,99798.88
2018-08-23T17:01:38.969Z,99794.99
2018-08-23T17:04:07.154Z,99805.11
2018-08-23T17:06:35.196Z,99806.61
2018-08-23T17:09:03.318Z,99803.77
2018-08-23T17:11:31.448Z,99805.22
2018-08-23T17:13:59.555Z,99810.45
2018-08-23T17:16:32.995Z,99802.45
2018-08-23T17:19:01.361Z,99806.16
2018-08-23T17:21:29.491Z,99801.64
2018-08-23T17:23:57.684Z,99805.67
2018-08-23T17:26:25.768Z,99801.09
2018-08-23T17:28:53.869Z,99802.74
2018-08-23T17:31:21.995Z,99799.97
2018-08-23T17:33:50.079Z,99802.36
2018-08-23T17:36:18.157Z,99799.42
2018-08-23T17:38:46.328Z,99801.35
2018-08-23T17:41:14.485Z,99802.64
2018-08-23T17:43:42.655Z,99803.77
2018-08-23T17:46:10.789Z,99800.53
2018-08-23T17:48:38.869Z,99799.45
2018-08-23T17:51:06.951Z,99796.98
2018-08-23T17:53:35.108Z,99799.03
2018-08-23T17:56:03.204Z,99802.52
2018-08-23T17:58:31.308Z,99799.09
2018-08-23T18:00:59.390Z,99804.78
2018-08-23T18:03:27.549Z,99803.06
2018-08-23T18:05:55.681Z,99802.78
2018-08-23T18:08:23.899Z,99798.43
2018-08-23T18:10:51.962Z,99803.90
2018-08-23T18:13:20.032Z,99800.48
2018-08-23T18:15:53.504Z,99798.42
2018-08-23T18:18:21.705Z,99800.31
2018-08-23T18:20:49.835Z,99805.66
2018-08-23T18:23:17.944Z,99808.94
2018-08-23T18:25:46.103Z,99807.52
2018-08-23T18:28:14.286Z,99812.02
2018-08-23T18:30:42.381Z,99819.71
2018-08-23T18:33:11.599Z,99821.41
2018-08-23T18:35:39.737Z,99822.00
2018-08-23T18:38:07.813Z,99813.69
2018-08-23T18:40:35.973Z,99817.72
2018-08-23T18:43:04.072Z,99825.22
2018-08-23T18:45:32.173Z,99829.12
2018-08-23T18:48:00.299Z,99823.90
2018-08-23T18:50:28.464Z,99829.64
2018-08-23T18:52:56.568Z,99829.31
2018-08-23T18:55:24.660Z,99827.25
2018-08-23T18:57:52.752Z,99836.94
2018-08-23T19:00:20.874Z,99827.81
2018-08-23T19:02:48.965Z,99840.14
2018-08-23T19:05:17.015Z,99842.34
2018-08-23T19:07:45.077Z,99842.94
2018-08-23T19:10:13.432Z,99841.48
2018-08-23T19:12:41.495Z,99843.80
2018-08-23T19:15:09.660Z,99842.52
2018-08-23T19:17:39.733Z,99847.13
2018-08-23T19:20:08.801Z,99851.16
2018-08-23T19:22:37.194Z,99848.28
2018-08-23T19:25:05.949Z,99851.69
2018-08-23T19:27:34.092Z,99851.93
2018-08-23T19:30:02.304Z,99860.80
2018-08-23T19:32:30.813Z,99858.98
2018-08-23T19:34:59.088Z,99861.12
2018-08-23T19:37:27.195Z,99852.47
2018-08-23T19:39:55.291Z,99859.30
2018-08-23T19:42:23.345Z,99866.27
2018-08-23T19:44:56.542Z,99861.81
2018-08-23T19:47:29.920Z,99869.11
2018-08-23T19:50:00.036Z,99865.11
2018-08-23T19:52:29.229Z,99863.37
2018-08-23T19:54:58.145Z,99858.47
2018-08-23T19:57:26.400Z,99864.00
2018-08-23T19:59:54.483Z,99857.72
2018-08-23T20:02:22.612Z,99863.89
2018-08-23T20:04:50.733Z,99861.83
2018-08-23T20:07:18.805Z,99868.74
2018-08-23T20:09:46.890Z,99872.45
2018-08-23T20:12:14.987Z,99865.34
2018-08-23T20:14:43.044Z,99884.98
2018-08-23T20:17:11.123Z,99873.33
2018-08-23T20:19:39.216Z,99869.80
2018-08-23T20:22:07.923Z,99879.59
2018-08-23T20:24:36.503Z,99873.28
2018-08-23T20:27:04.661Z,99872.44
2018-08-23T20:29:32.825Z,99873.00
2018-08-23T20:32:00.927Z,99873.89
2018-08-23T20:34:29.042Z,99863.18
2018-08-23T20:36:57.137Z,99857.45
2018-08-23T20:39:25.395Z,99856.94
2018-08-23T20:41:53.283Z,99852.21
2018-08-23T20:44:21.388Z,99852.92
2018-08-23T20:46:49.491Z,99857.23
2018-08-23T20:49:17.594Z,99851.70
2018-08-23T20:51:45.700Z,99856.66
2018-08-23T20:54:13.809Z,99854.22
2018-08-23T20:56:41.892Z,99863.35
2018-08-23T20:59:10.045Z,99859.66
2018-08-23T21:01:38.141Z,99861.61
2018-08-23T21:04:07.529Z,99865.13
2018-08-23T21:06:35.609Z,99867.23
2018-08-23T21:09:05.929Z,99870.77
2018-08-23T21:11:34.023Z,99868.99
2018-08-23T21:14:02.100Z,99870.06
2018-08-23T21:16:30.210Z,99870.33
2018-08-23T21:18:58.329Z,99874.20
2018-08-23T21:21:26.403Z,99874.11
2018-08-23T21:23:54.484Z,99873.58
2018-08-23T21:26:22.605Z,99877.09
2018-08-23T21:28:50.715Z,99870.34
2018-08-23T21:31:18.842Z,99869.66
2018-08-23T21:33:46.920Z,99874.48
2018-08-23T21:36:15.047Z,99875.17
2018-08-23T21:38:43.287Z,99878.86
2018-08-23T21:41:12.960Z,99878.52
2018-08-23T21:43:41.040Z,99881.14
2018-08-23T21:46:09.169Z,99872.38
2018-08-23T21:48:37.297Z,99870.64
2018-08-23T21:51:05.499Z,99870.12
2018-08-23T21:53:33.717Z,99873.80
2018-08-23T21:56:01.869Z,99867.66
2018-08-23T21:58:30.039Z,99867.13
2018-08-23T22:01:03.346Z,99873.96
2018-08-23T22:03:31.445Z,99873.63
2018-08-23T22:05:59.587Z,99875.86
2018-08-23T22:08:27.652Z,99873.33
2018-08-23T22:10:55.796Z,99873.59
2018-08-23T22:13:23.876Z,99872.08
2018-08-23T22:15:51.943Z,99866.55
2018-08-23T22:18:20.223Z,99867.62
2018-08-23T22:20:48.298Z,99857.27
2018-08-23T22:23:16.367Z,99858.33
2018-08-23T22:25:44.432Z,99852.54
2018-08-23T22:28:12.499Z,99850.80
2018-08-23T22:30:41.736Z,99848.07
2018-08-23T22:33:11.246Z,99848.15
2018-08-23T22:35:39.810Z,99850.23
2018-08-23T22:38:08.402Z,99853.91
2018-08-23T22:40:37.035Z,99849.44
2018-08-23T22:43:05.369Z,99849.70
2018-08-23T22:45:33.539Z,99844.55
2018-08-23T22:48:01.704Z,99849.95
2018-08-23T22:50:36.206Z,99846.02
2018-08-23T22:53:04.376Z,99836.73
2018-08-23T22:55:32.494Z,99834.80
2018-08-23T22:58:00.616Z,99829.20
2018-08-23T23:00:33.993Z,99829.62
2018-08-23T23:03:02.064Z,99823.67
2018-08-23T23:05:30.152Z,99829.09
2018-08-23T23:08:02.424Z,99825.34
2018-08-23T23:10:30.493Z,99827.23
2018-08-23T23:12:58.603Z,99824.27
2018-08-23T23:15:26.944Z,99816.73
2018-08-23T23:17:55.274Z,99823.73
2018-08-23T23:20:23.351Z,99815.67
2018-08-23T23:22:51.408Z,99814.28
2018-08-23T23:25:19.463Z,99810.33
2018-08-23T23:27:47.531Z,99804.28
2018-08-23T23:30:15.587Z,99805.88
2018-08-23T23:32:43.723Z,99808.25
2018-08-23T23:35:11.860Z,99795.20
2018-08-23T23:37:39.948Z,99790.20
2018-08-23T23:40:08.059Z,99789.78
2018-08-23T23:42:36.775Z,99790.05
2018-08-23T23:45:05.576Z,99786.45
2018-08-23T23:47:33.703Z,99784.26
2018-08-23T23:50:01.846Z,99784.26
2018-08-23T23:52:29.993Z,99787.66
2018-08-23T23:57:25.244Z,99778.73
2018-08-23T23:59:53.288Z,99781.00
